Miami, Florida
Traffic Map
Current Weather Conditions
Miami, Florida
Overcast Heavy Rain
Overcast
84°
Feels Like: 90°
Wind Chill: 84° Ceiling: 3000
Heat Index: 90° Visibility: 1mi
Dew Point: 73° Wind: 6mph
Humidity: 69% Direction: ° ()
Pressure: 30.11in Gusts: 0mph
Raw Report DataKMIA 251608Z VRB05KT 1SM +RA BKN030CB OVC250 29/23 A3011 RMK AO2 RAB00 CB OHD AND ALQDS MOV STNRY P0000 T02890228
Traffic Incident Summary
Active as of:
Severity:
Category:
InformationThere was an issue retrieving the traffic information for this location. Please try a different location or try again shortly.
Advertisements
Track Severe Weather on mobile